createdAt,value
2022-10-21T00:00:34.196Z,35.50
2022-10-21T00:02:37.044Z,36.47
2022-10-21T00:04:40.068Z,30.42
2022-10-21T00:06:44.088Z,29.75
2022-10-21T00:08:46.759Z,38.45
2022-10-21T00:10:53.918Z,33.90
2022-10-21T00:12:56.521Z,33.28
2022-10-21T00:14:59.631Z,39.60
2022-10-21T00:17:02.317Z,31.77
2022-10-21T00:19:04.869Z,37.42
2022-10-21T00:21:08.988Z,38.80
2022-10-21T00:23:12.941Z,32.72
2022-10-21T00:25:15.667Z,37.80
2022-10-21T00:27:18.397Z,39.70
2022-10-21T00:31:25.624Z,39.25
2022-10-21T00:33:29.365Z,38.50
2022-10-21T00:35:34.587Z,37.05
2022-10-21T00:37:37.610Z,36.25
2022-10-21T00:39:42.239Z,35.97
2022-10-21T00:41:44.852Z,36.25
2022-10-21T00:43:58.787Z,34.58
2022-10-21T00:46:05.855Z,35.92
2022-10-21T00:48:15.268Z,34.55
2022-10-21T00:50:28.030Z,30.52
2022-10-21T00:52:34.127Z,31.70
2022-10-21T00:54:38.051Z,36.10
2022-10-21T00:56:44.167Z,30.17
2022-10-21T00:58:49.301Z,35.50
2022-10-21T01:00:55.742Z,26.45
2022-10-21T01:02:59.020Z,33.05
2022-10-21T01:05:04.509Z,26.45
2022-10-21T01:07:07.160Z,25.23
2022-10-21T01:09:10.268Z,28.42
2022-10-21T01:11:15.428Z,29.88
2022-10-21T01:13:29.350Z,32.13
2022-10-21T01:15:37.726Z,29.75
2022-10-21T01:17:48.593Z,27.92
2022-10-21T01:20:21.044Z,26.23
2022-10-21T01:22:43.578Z,25.30
2022-10-21T01:25:25.532Z,28.00
2022-10-21T01:27:39.681Z,27.52
2022-10-21T01:30:28.094Z,27.58
2022-10-21T01:32:46.927Z,31.10
2022-10-21T01:34:58.981Z,29.63
2022-10-21T01:37:09.609Z,25.92
2022-10-21T01:39:20.085Z,26.70
2022-10-21T01:41:29.892Z,25.88
2022-10-21T01:43:39.958Z,32.50
2022-10-21T01:45:48.180Z,23.77
2022-10-21T01:47:56.033Z,30.02
2022-10-21T01:50:04.577Z,27.25
2022-10-21T01:52:08.613Z,25.40
2022-10-21T01:54:15.740Z,27.98
2022-10-21T01:56:20.498Z,27.23
2022-10-21T01:58:26.117Z,24.48
2022-10-21T02:00:29.317Z,20.80
2022-10-21T02:02:34.926Z,22.98
2022-10-21T02:04:42.886Z,24.15
2022-10-21T02:06:45.678Z,24.70
2022-10-21T02:08:48.441Z,21.95
2022-10-21T02:10:54.629Z,18.90
2022-10-21T02:13:03.023Z,21.27
2022-10-21T02:15:08.666Z,22.23
2022-10-21T02:17:14.756Z,23.63
2022-10-21T02:19:20.519Z,24.42
2022-10-21T02:21:27.064Z,30.83
2022-10-21T02:23:38.920Z,24.17
2022-10-21T02:25:45.445Z,23.15
2022-10-21T02:27:48.999Z,24.25
2022-10-21T02:29:55.576Z,22.63
2022-10-21T02:34:30.241Z,19.23
2022-10-21T02:36:47.079Z,19.98
2022-10-21T02:38:56.184Z,22.08
2022-10-21T02:41:02.862Z,18.23
2022-10-21T02:43:10.227Z,18.67
2022-10-21T02:45:13.067Z,23.70
2022-10-21T02:47:16.654Z,23.48
2022-10-21T02:49:19.418Z,20.05
2022-10-21T02:51:21.993Z,20.25
2022-10-21T02:53:25.920Z,19.02
2022-10-21T02:55:28.493Z,24.85
2022-10-21T02:57:31.056Z,26.60
2022-10-21T02:59:33.664Z,23.13
2022-10-21T03:01:36.270Z,22.67
2022-10-21T03:03:38.856Z,20.23
2022-10-21T03:05:41.598Z,23.88
2022-10-21T03:07:44.251Z,20.75
2022-10-21T03:09:48.175Z,23.02
2022-10-21T03:11:50.875Z,28.90
2022-10-21T03:13:53.440Z,23.10
2022-10-21T03:15:56.084Z,22.10
2022-10-21T03:17:58.799Z,22.13
2022-10-21T03:20:01.516Z,21.73
2022-10-21T03:22:04.185Z,21.77
2022-10-21T03:24:11.112Z,26.25
2022-10-21T03:26:23.738Z,27.67
2022-10-21T03:28:26.460Z,32.88
2022-10-21T03:30:29.817Z,27.70
2022-10-21T03:32:33.577Z,30.70
2022-10-21T03:34:36.210Z,30.52
2022-10-21T03:36:38.800Z,35.45
2022-10-21T03:38:41.400Z,31.48
2022-10-21T03:40:43.988Z,25.48
2022-10-21T03:42:47.878Z,29.70
2022-10-21T03:44:50.440Z,31.10
2022-10-21T03:46:53.037Z,33.45
2022-10-21T03:48:59.431Z,29.63
2022-10-21T03:51:06.618Z,31.65
2022-10-21T03:53:13.958Z,28.05
2022-10-21T03:55:24.134Z,30.38
2022-10-21T03:57:26.898Z,31.60
2022-10-21T03:59:30.844Z,29.70
2022-10-21T04:01:33.514Z,28.42
2022-10-21T04:03:36.142Z,29.00
2022-10-21T04:05:38.754Z,32.92
2022-10-21T04:07:41.823Z,25.13
2022-10-21T04:09:44.484Z,24.50
2022-10-21T04:11:47.139Z,24.23
2022-10-21T04:13:49.753Z,27.73
2022-10-21T04:15:58.721Z,24.38
2022-10-21T04:18:01.318Z,24.75
2022-10-21T04:20:04.643Z,25.10
2022-10-21T04:22:07.364Z,24.85
2022-10-21T04:24:09.942Z,25.23
2022-10-21T04:26:13.086Z,23.92
2022-10-21T04:28:15.839Z,23.05
2022-10-21T04:30:18.772Z,22.98
2022-10-21T04:32:23.069Z,20.10
2022-10-21T04:34:25.874Z,21.15
2022-10-21T04:36:28.710Z,28.52
2022-10-21T04:38:31.354Z,23.58
2022-10-21T04:40:33.988Z,21.92
2022-10-21T04:42:36.619Z,26.85
2022-10-21T04:44:40.436Z,24.92
2022-10-21T04:46:43.085Z,22.98
2022-10-21T04:48:47.142Z,28.88
2022-10-21T04:50:50.009Z,25.77
2022-10-21T04:52:52.661Z,25.50
2022-10-21T04:54:55.252Z,23.63
2022-10-21T04:56:57.952Z,25.17
2022-10-21T04:59:00.511Z,23.95
2022-10-21T05:01:03.230Z,20.40
2022-10-21T05:03:05.955Z,18.63
2022-10-21T05:05:10.580Z,18.95
2022-10-21T05:07:13.192Z,15.95
2022-10-21T05:09:15.982Z,17.10
2022-10-21T05:11:18.634Z,16.33
2022-10-21T05:13:21.239Z,17.23
2022-10-21T05:15:24.055Z,16.50
2022-10-21T05:17:26.835Z,15.35
2022-10-21T05:19:31.371Z,14.57
2022-10-21T05:23:43.403Z,15.48
2022-10-21T05:25:46.411Z,14.35
2022-10-21T05:27:49.267Z,16.17
2022-10-21T05:29:51.902Z,17.70
2022-10-21T05:31:54.524Z,21.02
2022-10-21T05:33:58.107Z,14.65
2022-10-21T05:36:02.636Z,15.02
2022-10-21T05:38:06.748Z,13.77
2022-10-21T05:40:10.223Z,17.77
2022-10-21T05:42:12.888Z,14.90
2022-10-21T05:44:15.575Z,15.88
2022-10-21T05:46:18.354Z,12.45
2022-10-21T05:48:21.475Z,16.73
2022-10-21T05:50:24.550Z,13.68
2022-10-21T05:52:27.221Z,11.90
2022-10-21T05:54:31.225Z,13.18
2022-10-21T05:56:33.923Z,13.13
2022-10-21T05:58:36.769Z,10.63
2022-10-21T06:00:40.190Z,13.43
2022-10-21T06:02:42.949Z,11.90
2022-10-21T06:04:45.545Z,13.18
2022-10-21T06:06:48.238Z,12.32
2022-10-21T06:08:51.034Z,14.98
2022-10-21T06:11:02.716Z,11.38
2022-10-21T06:13:05.338Z,10.63
2022-10-21T06:15:09.023Z,12.63
2022-10-21T06:17:11.694Z,12.95
2022-10-21T06:19:14.313Z,10.77
2022-10-21T06:21:16.963Z,13.18
2022-10-21T06:23:19.564Z,10.85
2022-10-21T06:25:23.697Z,10.57
2022-10-21T06:27:27.717Z,11.73
2022-10-21T06:29:30.454Z,11.65
2022-10-21T06:31:33.036Z,13.55
2022-10-21T06:33:36.451Z,14.73
2022-10-21T06:35:39.113Z,16.55
2022-10-21T06:37:41.793Z,11.93
2022-10-21T06:39:44.403Z,8.07
2022-10-21T06:41:47.142Z,16.55
2022-10-21T06:43:51.178Z,13.55
2022-10-21T06:45:53.823Z,16.88
2022-10-21T06:47:56.452Z,10.07
2022-10-21T06:50:02.889Z,12.70
2022-10-21T06:52:05.974Z,16.05
2022-10-21T06:54:08.615Z,13.07
2022-10-21T06:56:13.235Z,10.63
2022-10-21T06:58:15.820Z,13.20
2022-10-21T07:00:19.904Z,17.35
2022-10-21T07:02:24.120Z,15.32
2022-10-21T07:04:26.888Z,12.52
2022-10-21T07:06:29.603Z,12.43
2022-10-21T07:08:46.677Z,12.90
2022-10-21T07:10:56.359Z,19.92
2022-10-21T07:12:58.950Z,14.52
2022-10-21T07:15:01.569Z,16.05
2022-10-21T07:17:05.647Z,15.05
2022-10-21T07:19:08.450Z,14.13
2022-10-21T07:21:14.699Z,12.45
2022-10-21T07:23:17.263Z,12.02
2022-10-21T07:25:20.153Z,17.02
2022-10-21T07:27:22.814Z,10.25
2022-10-21T07:29:25.462Z,12.35
2022-10-21T07:31:29.505Z,13.00
2022-10-21T07:33:35.150Z,14.25
2022-10-21T07:35:37.952Z,12.98
2022-10-21T07:37:40.953Z,16.73
2022-10-21T07:39:43.826Z,14.60
2022-10-21T07:41:50.363Z,15.68
2022-10-21T07:46:00.695Z,14.27
2022-10-21T07:48:06.086Z,12.85
2022-10-21T07:50:10.804Z,15.88
2022-10-21T07:54:16.204Z,19.15
2022-10-21T07:56:20.897Z,14.18
2022-10-21T07:58:23.506Z,13.45
2022-10-21T08:00:26.213Z,17.98
2022-10-21T08:02:28.882Z,12.73
2022-10-21T08:04:33.246Z,19.73
2022-10-21T08:06:37.444Z,15.18
2022-10-21T08:08:41.351Z,15.27
2022-10-21T08:10:44.358Z,16.90
2022-10-21T08:12:47.068Z,16.45
2022-10-21T08:14:49.721Z,15.13
2022-10-21T08:16:53.791Z,16.55
2022-10-21T08:18:56.945Z,16.65
2022-10-21T08:20:59.601Z,18.25
2022-10-21T08:23:03.583Z,19.55
2022-10-21T08:25:07.241Z,13.73
2022-10-21T08:27:09.882Z,20.45
2022-10-21T08:29:12.605Z,15.70
2022-10-21T08:31:17.281Z,19.02
2022-10-21T08:33:20.027Z,17.05
2022-10-21T08:35:22.867Z,16.75
2022-10-21T08:37:25.799Z,15.88
2022-10-21T08:39:29.945Z,14.52
2022-10-21T08:41:46.727Z,14.48
2022-10-21T08:43:51.061Z,15.15
2022-10-21T08:45:58.702Z,15.68
2022-10-21T08:48:06.799Z,20.95
2022-10-21T08:50:14.621Z,22.67
2022-10-21T08:52:22.023Z,12.43
2022-10-21T08:54:39.905Z,13.57
2022-10-21T08:56:44.012Z,16.25
2022-10-21T08:58:49.129Z,14.40
2022-10-21T09:00:55.889Z,14.07
2022-10-21T09:03:16.629Z,15.73
2022-10-21T09:05:29.132Z,14.73
2022-10-21T09:09:52.778Z,16.00
2022-10-21T09:12:07.142Z,15.90
2022-10-21T09:14:39.933Z,14.45
2022-10-21T09:16:50.530Z,13.00
2022-10-21T09:19:02.682Z,13.90
2022-10-21T09:21:11.802Z,11.38
2022-10-21T09:23:34.285Z,13.95
2022-10-21T09:25:49.573Z,11.07
2022-10-21T09:27:56.691Z,13.90
2022-10-21T09:30:03.057Z,14.32
2022-10-21T09:32:16.105Z,14.68
2022-10-21T09:34:30.313Z,11.95
2022-10-21T09:36:37.445Z,12.30
2022-10-21T09:38:46.217Z,11.00
2022-10-21T09:40:53.308Z,7.60
2022-10-21T09:42:59.185Z,9.90
2022-10-21T09:45:01.838Z,11.13
2022-10-21T09:47:16.652Z,7.60
2022-10-21T09:50:01.638Z,12.85
2022-10-21T09:51:51.479Z,7.88
2022-10-21T09:53:56.706Z,7.05
2022-10-21T09:56:03.763Z,7.30
2022-10-21T09:58:07.784Z,6.93
2022-10-21T10:00:13.788Z,7.50
2022-10-21T10:02:18.695Z,4.88
2022-10-21T10:04:30.549Z,7.30
2022-10-21T10:06:35.993Z,6.82
2022-10-21T10:08:40.866Z,8.23
2022-10-21T10:10:43.591Z,6.80
2022-10-21T10:12:56.702Z,9.23
2022-10-21T10:15:28.143Z,6.40
2022-10-21T10:17:37.093Z,8.63
2022-10-21T10:19:39.832Z,6.57
2022-10-21T10:21:42.673Z,8.57
2022-10-21T10:23:47.591Z,6.55
2022-10-21T10:25:53.020Z,7.63
2022-10-21T10:27:59.325Z,7.18
2022-10-21T10:30:04.194Z,6.70
2022-10-21T10:32:15.461Z,8.80
2022-10-21T10:34:22.163Z,9.98
2022-10-21T10:36:32.127Z,7.18
2022-10-21T10:38:37.303Z,6.93
2022-10-21T10:40:42.868Z,7.97
2022-10-21T10:42:47.206Z,6.60
2022-10-21T10:44:54.012Z,9.05
2022-10-21T10:47:00.249Z,6.55
2022-10-21T10:49:07.753Z,8.07
2022-10-21T10:51:25.525Z,7.28
2022-10-21T10:53:33.132Z,5.63
2022-10-21T10:55:43.012Z,7.10
2022-10-21T10:57:59.303Z,6.47
2022-10-21T11:00:17.230Z,8.32
2022-10-21T11:02:39.118Z,7.03
2022-10-21T11:04:49.546Z,8.07
2022-10-21T11:06:57.085Z,9.25
2022-10-21T11:09:02.169Z,8.75
2022-10-21T11:11:08.223Z,7.32
2022-10-21T11:13:13.985Z,6.15
2022-10-21T11:15:17.379Z,6.10
2022-10-21T11:17:22.239Z,7.50
2022-10-21T11:19:34.131Z,9.25
2022-10-21T11:21:45.301Z,7.32
2022-10-21T11:24:13.633Z,9.18
2022-10-21T11:26:26.397Z,6.53
2022-10-21T11:28:34.721Z,5.15
2022-10-21T11:30:58.757Z,8.10
2022-10-21T11:33:10.437Z,5.22
2022-10-21T11:35:24.379Z,6.55
2022-10-21T11:37:37.783Z,6.63
2022-10-21T11:39:50.509Z,6.10
2022-10-21T11:42:00.351Z,6.47
2022-10-21T11:44:15.629Z,8.02
2022-10-21T11:46:25.500Z,6.85
2022-10-21T11:48:37.869Z,6.47
2022-10-21T11:53:11.762Z,5.07
2022-10-21T11:55:31.565Z,6.05
2022-10-21T11:57:40.542Z,8.88
2022-10-21T12:00:01.758Z,5.15
2022-10-21T12:02:16.311Z,6.55
2022-10-21T12:04:45.994Z,6.75
2022-10-21T12:06:59.563Z,5.30
2022-10-21T12:09:06.997Z,4.70
2022-10-21T12:11:13.905Z,7.60
2022-10-21T12:13:22.350Z,5.68
2022-10-21T12:15:31.714Z,6.05
2022-10-21T12:17:38.584Z,4.95
2022-10-21T12:19:41.633Z,4.10
2022-10-21T12:21:46.527Z,6.78
2022-10-21T12:23:56.098Z,5.78
2022-10-21T12:26:13.853Z,5.97
2022-10-21T12:28:25.325Z,5.15
2022-10-21T12:30:33.683Z,5.43
2022-10-21T12:32:42.079Z,4.25
2022-10-21T12:34:44.750Z,2.95
2022-10-21T12:36:50.569Z,3.50
2022-10-21T12:38:55.797Z,3.90
2022-10-21T12:41:27.816Z,2.58
2022-10-21T12:43:30.531Z,3.72
2022-10-21T12:45:35.683Z,5.00
2022-10-21T12:47:45.560Z,4.30
2022-10-21T12:49:48.327Z,6.88
2022-10-21T12:51:55.321Z,4.97
2022-10-21T12:54:08.305Z,5.60
2022-10-21T12:56:12.501Z,7.55
2022-10-21T12:58:27.702Z,3.95
2022-10-21T13:00:54.033Z,5.28
2022-10-21T13:03:02.644Z,5.28
2022-10-21T13:05:05.326Z,4.25
2022-10-21T13:07:29.182Z,5.80
2022-10-21T13:09:36.842Z,5.97
2022-10-21T13:11:40.702Z,5.07
2022-10-21T13:13:43.971Z,6.10
2022-10-21T13:15:48.271Z,5.20
2022-10-21T13:17:53.196Z,4.38
2022-10-21T13:19:57.080Z,6.07
2022-10-21T13:22:11.270Z,7.72
2022-10-21T13:24:24.483Z,3.95
2022-10-21T13:26:30.091Z,5.65
2022-10-21T13:28:32.820Z,4.75
2022-10-21T13:30:37.483Z,5.00
2022-10-21T13:32:41.584Z,5.22
2022-10-21T13:34:57.766Z,5.53
2022-10-21T13:37:00.446Z,6.35
2022-10-21T13:39:17.806Z,4.32
2022-10-21T13:41:23.559Z,4.18
2022-10-21T13:43:30.856Z,5.70
2022-10-21T13:45:37.072Z,4.35
2022-10-21T13:47:39.965Z,4.50
2022-10-21T13:49:43.093Z,3.97
2022-10-21T13:51:47.692Z,4.15
2022-10-21T13:53:54.918Z,4.30
2022-10-21T13:56:00.661Z,5.65
2022-10-21T13:58:03.363Z,4.65
2022-10-21T14:00:10.892Z,3.63
2022-10-21T14:02:27.259Z,5.63
2022-10-21T14:04:32.177Z,2.85
2022-10-21T14:06:37.107Z,3.40
2022-10-21T14:08:42.973Z,6.47
2022-10-21T14:10:46.598Z,3.33
2022-10-21T14:12:50.432Z,5.50
2022-10-21T14:14:55.330Z,3.90
2022-10-21T14:17:01.846Z,5.00
2022-10-21T14:21:16.771Z,2.65
2022-10-21T14:23:21.588Z,3.00
2022-10-21T14:25:24.575Z,2.97
2022-10-21T14:27:29.544Z,2.63
2022-10-21T14:29:35.799Z,3.67
2022-10-21T14:31:41.834Z,2.40
2022-10-21T14:33:49.671Z,3.78
2022-10-21T14:36:07.317Z,4.35
2022-10-21T14:38:26.440Z,3.45
2022-10-21T14:40:32.805Z,3.58
2022-10-21T14:42:35.490Z,3.72
2022-10-21T14:44:39.269Z,3.45
2022-10-21T14:46:44.005Z,7.25
2022-10-21T14:48:51.863Z,3.63
2022-10-21T14:50:59.796Z,3.00
2022-10-21T14:53:02.849Z,4.75
2022-10-21T14:55:10.463Z,5.03
2022-10-21T14:57:31.389Z,3.05
2022-10-21T14:59:40.158Z,3.58
2022-10-21T15:01:44.030Z,3.75
2022-10-21T15:03:49.834Z,5.63
2022-10-21T15:06:08.180Z,4.18
2022-10-21T15:08:29.170Z,4.43
2022-10-21T15:10:33.787Z,3.95
2022-10-21T15:12:41.739Z,3.92
2022-10-21T15:14:44.587Z,4.63
2022-10-21T15:16:50.200Z,2.97
2022-10-21T15:18:54.994Z,4.00
2022-10-21T15:21:01.373Z,3.15
2022-10-21T15:23:04.205Z,3.00
2022-10-21T15:25:10.243Z,3.38
2022-10-21T15:27:18.815Z,3.78
2022-10-21T15:29:34.112Z,5.22
2022-10-21T15:31:36.711Z,3.03
2022-10-21T15:33:39.315Z,2.60
2022-10-21T15:35:43.439Z,3.70
2022-10-21T15:37:48.651Z,8.80
2022-10-21T15:39:51.276Z,3.33
2022-10-21T15:41:56.268Z,4.43
2022-10-21T15:44:00.618Z,3.75
2022-10-21T15:46:03.225Z,3.42
2022-10-21T15:48:10.325Z,3.60
2022-10-21T15:50:17.320Z,1.73
2022-10-21T15:52:21.275Z,3.05
2022-10-21T15:54:23.895Z,2.92
2022-10-21T15:56:26.490Z,4.13
2022-10-21T15:58:29.271Z,2.70
2022-10-21T16:00:38.571Z,3.22
2022-10-21T16:02:43.451Z,3.45
2022-10-21T16:04:46.647Z,3.17
2022-10-21T16:06:50.608Z,4.15
2022-10-21T16:08:54.623Z,3.13
2022-10-21T16:10:57.794Z,3.55
2022-10-21T16:13:00.432Z,3.40
2022-10-21T16:15:03.072Z,4.35
2022-10-21T16:17:05.672Z,3.08
2022-10-21T16:19:08.353Z,3.17
2022-10-21T16:21:13.119Z,2.75
2022-10-21T16:23:15.744Z,1.98
2022-10-21T16:25:20.844Z,4.68
2022-10-21T16:27:43.257Z,4.78
2022-10-21T16:29:46.056Z,3.40
2022-10-21T16:31:48.856Z,2.03
2022-10-21T16:33:51.608Z,3.55
2022-10-21T16:35:54.498Z,3.67
2022-10-21T16:37:57.191Z,3.60
2022-10-21T16:39:59.847Z,4.10
2022-10-21T16:42:03.800Z,2.78
2022-10-21T16:44:06.479Z,3.38
2022-10-21T16:46:22.493Z,4.28
2022-10-21T16:50:36.845Z,4.13
2022-10-21T16:52:39.682Z,5.63
2022-10-21T16:54:43.458Z,2.63
2022-10-21T16:56:52.123Z,2.90
2022-10-21T16:58:58.980Z,2.22
2022-10-21T17:01:04.282Z,3.58
2022-10-21T17:03:07.643Z,2.90
2022-10-21T17:05:14.305Z,3.50
2022-10-21T17:07:17.043Z,3.80
2022-10-21T17:09:20.458Z,2.47
2022-10-21T17:11:25.275Z,3.20
2022-10-21T17:13:27.945Z,2.22
2022-10-21T17:15:31.843Z,2.05
2022-10-21T17:17:36.570Z,2.17
2022-10-21T17:19:39.314Z,4.95
2022-10-21T17:21:42.718Z,2.15
2022-10-21T17:23:45.322Z,2.30
2022-10-21T17:25:47.949Z,2.85
2022-10-21T17:27:50.899Z,4.38
2022-10-21T17:29:53.530Z,2.97
2022-10-21T17:31:57.524Z,2.70
2022-10-21T17:34:06.173Z,2.90
2022-10-21T17:36:08.876Z,2.38
2022-10-21T17:38:11.501Z,6.80
2022-10-21T17:40:16.899Z,3.35
2022-10-21T17:42:19.492Z,2.63
2022-10-21T17:44:22.452Z,3.50
2022-10-21T17:46:26.369Z,2.55
2022-10-21T17:48:30.413Z,4.85
2022-10-21T17:50:33.009Z,4.18
2022-10-21T17:52:36.032Z,5.00
2022-10-21T17:54:38.692Z,6.72
2022-10-21T17:56:41.966Z,5.47
2022-10-21T17:58:44.577Z,4.80
2022-10-21T18:00:47.291Z,5.35
2022-10-21T18:02:49.968Z,5.15
2022-10-21T18:04:53.989Z,4.70
2022-10-21T18:06:56.605Z,4.70
2022-10-21T18:09:00.118Z,3.53
2022-10-21T18:11:03.019Z,4.13
2022-10-21T18:13:05.674Z,3.42
2022-10-21T18:15:08.738Z,2.40
2022-10-21T18:17:11.729Z,5.50
2022-10-21T18:19:14.338Z,3.10
2022-10-21T18:21:20.956Z,3.03
2022-10-21T18:23:23.998Z,4.30
2022-10-21T18:25:26.609Z,4.22
2022-10-21T18:27:29.219Z,6.15
2022-10-21T18:29:31.806Z,6.43
2022-10-21T18:31:36.898Z,5.47
2022-10-21T18:33:39.674Z,5.68
2022-10-21T18:35:42.372Z,6.47
2022-10-21T18:37:46.908Z,7.30
2022-10-21T18:39:54.190Z,3.85
2022-10-21T18:41:58.037Z,4.88
2022-10-21T18:44:04.603Z,6.72
2022-10-21T18:46:07.207Z,4.60
2022-10-21T18:48:10.181Z,6.07
2022-10-21T18:50:13.117Z,3.85
2022-10-21T18:52:15.688Z,3.80
2022-10-21T18:54:19.631Z,4.03
2022-10-21T18:56:24.315Z,6.68
2022-10-21T18:58:26.942Z,3.85
2022-10-21T19:00:29.587Z,6.13
2022-10-21T19:02:32.222Z,3.60
2022-10-21T19:04:35.122Z,4.30
2022-10-21T19:06:40.597Z,5.18
2022-10-21T19:08:43.381Z,6.57
2022-10-21T19:10:47.487Z,3.55
2022-10-21T19:12:52.360Z,3.85
2022-10-21T19:14:55.362Z,3.80
2022-10-21T19:16:58.836Z,5.35
2022-10-21T19:19:01.461Z,5.05
2022-10-21T19:21:04.433Z,5.32
2022-10-21T19:23:07.515Z,3.65
2022-10-21T19:25:10.745Z,3.95
2022-10-21T19:27:14.735Z,4.25
2022-10-21T19:29:19.756Z,4.57
2022-10-21T19:31:22.350Z,3.90
2022-10-21T19:33:25.175Z,4.22
2022-10-21T19:35:27.812Z,6.60
2022-10-21T19:37:30.400Z,5.00
2022-10-21T19:39:33.062Z,3.63
2022-10-21T19:41:35.764Z,5.78
2022-10-21T19:43:40.136Z,3.97
2022-10-21T19:45:42.711Z,3.95
2022-10-21T19:47:45.461Z,5.18
2022-10-21T19:49:48.501Z,4.10
2022-10-21T19:51:51.156Z,5.18
2022-10-21T19:53:54.910Z,4.43
2022-10-21T19:55:57.484Z,4.25
2022-10-21T19:58:00.074Z,4.95
2022-10-21T20:00:05.588Z,4.22
2022-10-21T20:02:09.893Z,4.00
2022-10-21T20:04:12.530Z,3.92
2022-10-21T20:06:17.981Z,4.50
2022-10-21T20:08:20.621Z,4.07
2022-10-21T20:10:23.875Z,4.70
2022-10-21T20:12:26.470Z,4.93
2022-10-21T20:14:29.096Z,4.38
2022-10-21T20:16:36.555Z,4.60
2022-10-21T20:18:39.127Z,5.43
2022-10-21T20:20:42.050Z,8.93
2022-10-21T20:22:44.679Z,4.25
2022-10-21T20:24:47.312Z,7.55
2022-10-21T20:26:51.311Z,7.13
2022-10-21T20:28:53.908Z,4.00
2022-10-21T20:30:57.456Z,5.22
2022-10-21T20:33:01.415Z,6.82
2022-10-21T20:35:04.517Z,6.22
2022-10-21T20:37:07.207Z,5.15
2022-10-21T20:39:11.789Z,5.10
2022-10-21T20:41:17.336Z,6.60
2022-10-21T20:43:20.009Z,7.88
2022-10-21T20:45:22.868Z,7.78
2022-10-21T20:47:27.555Z,5.15
2022-10-21T20:49:34.282Z,5.43
2022-10-21T20:51:39.024Z,4.57
2022-10-21T20:53:45.407Z,5.22
2022-10-21T20:55:54.597Z,6.30
2022-10-21T20:57:57.217Z,5.88
2022-10-21T20:59:59.856Z,5.28
2022-10-21T21:02:02.482Z,4.35
2022-10-21T21:04:08.176Z,6.60
2022-10-21T21:06:13.665Z,6.35
2022-10-21T21:08:16.275Z,5.10
2022-10-21T21:10:18.918Z,8.48
2022-10-21T21:12:21.793Z,6.20
2022-10-21T21:14:24.424Z,5.53
2022-10-21T21:16:27.406Z,7.25
2022-10-21T21:18:30.011Z,6.78
2022-10-21T21:20:32.718Z,5.95
2022-10-21T21:22:37.947Z,7.32
2022-10-21T21:24:40.914Z,7.18
2022-10-21T21:26:43.538Z,7.18
2022-10-21T21:28:46.801Z,8.38
2022-10-21T21:30:52.327Z,6.53
2022-10-21T21:32:54.960Z,6.40
2022-10-21T21:34:58.747Z,6.63
2022-10-21T21:37:02.743Z,6.90
2022-10-21T21:39:08.377Z,8.13
2022-10-21T21:41:11.617Z,8.85
2022-10-21T21:43:14.256Z,9.73
2022-10-21T21:45:16.883Z,10.00
2022-10-21T21:47:19.447Z,7.35
2022-10-21T21:49:22.127Z,6.57
2022-10-21T21:51:26.331Z,6.63
2022-10-21T21:53:28.931Z,8.98
2022-10-21T21:55:33.260Z,5.43
2022-10-21T21:57:35.891Z,5.90
2022-10-21T21:59:38.479Z,6.82
2022-10-21T22:01:41.127Z,5.97
2022-10-21T22:03:44.307Z,5.07
2022-10-21T22:05:46.905Z,4.45
2022-10-21T22:07:50.096Z,7.63
2022-10-21T22:09:52.725Z,6.20
2022-10-21T22:11:56.695Z,4.22
2022-10-21T22:14:00.164Z,4.55
2022-10-21T22:16:02.837Z,3.83
2022-10-21T22:18:05.531Z,7.53
2022-10-21T22:20:09.699Z,5.10
2022-10-21T22:22:12.358Z,4.82
2022-10-21T22:24:14.997Z,3.55
2022-10-21T22:26:19.393Z,4.30
2022-10-21T22:28:23.430Z,4.38
2022-10-21T22:30:26.047Z,4.40
2022-10-21T22:32:28.694Z,5.20
2022-10-21T22:34:31.318Z,3.50
2022-10-21T22:36:33.888Z,3.95
2022-10-21T22:38:36.747Z,3.45
2022-10-21T22:40:39.336Z,3.55
2022-10-21T22:42:41.980Z,3.55
2022-10-21T22:44:46.077Z,4.13
2022-10-21T22:46:48.999Z,3.03
2022-10-21T22:48:51.627Z,2.53
2022-10-21T22:50:54.249Z,4.28
2022-10-21T22:52:57.123Z,4.15
2022-10-21T22:54:59.770Z,4.07
2022-10-21T22:57:02.405Z,3.92
2022-10-21T22:59:05.279Z,4.35
2022-10-21T23:01:10.845Z,2.63
2022-10-21T23:03:13.473Z,5.43
2022-10-21T23:05:16.580Z,2.88
2022-10-21T23:07:19.171Z,2.63
2022-10-21T23:09:21.856Z,1.92
2022-10-21T23:11:24.459Z,2.05
2022-10-21T23:13:27.311Z,4.18
2022-10-21T23:15:29.934Z,3.72
2022-10-21T23:17:34.292Z,3.20
2022-10-21T23:19:36.914Z,3.72
2022-10-21T23:21:39.762Z,2.50
2022-10-21T23:23:42.416Z,2.17
2022-10-21T23:25:44.982Z,2.72
2022-10-21T23:27:47.546Z,4.82
2022-10-21T23:29:50.136Z,3.63
2022-10-21T23:31:52.699Z,4.93
2022-10-21T23:33:56.867Z,3.30
2022-10-21T23:35:59.499Z,2.45
2022-10-21T23:38:02.147Z,5.35
2022-10-21T23:40:05.272Z,2.45
2022-10-21T23:42:08.012Z,2.17
2022-10-21T23:44:10.934Z,2.25
2022-10-21T23:46:13.558Z,2.33
2022-10-21T23:48:16.297Z,1.35
2022-10-21T23:50:20.446Z,2.15
2022-10-21T23:52:23.016Z,2.70
2022-10-21T23:54:25.633Z,3.20
2022-10-21T23:56:28.224Z,1.83
2022-10-21T23:58:30.814Z,1.80
